createdAt,value
2023-01-12T00:02:06.658Z,89.65
2023-01-12T00:04:35.733Z,89.09
2023-01-12T00:07:03.970Z,89.49
2023-01-12T00:09:31.881Z,89.11
2023-01-12T00:12:00.051Z,88.90
2023-01-12T00:14:27.990Z,88.93
2023-01-12T00:16:55.870Z,88.42
2023-01-12T00:19:25.354Z,88.13
2023-01-12T00:21:59.572Z,88.55
2023-01-12T00:24:29.273Z,88.41
2023-01-12T00:26:58.666Z,89.09
2023-01-12T00:29:27.564Z,88.57
2023-01-12T00:32:00.890Z,88.89
2023-01-12T00:34:30.595Z,88.46
2023-01-12T00:37:00.832Z,87.61
2023-01-12T00:39:28.754Z,86.87
2023-01-12T00:42:16.768Z,86.16
2023-01-12T00:45:02.154Z,85.69
2023-01-12T00:47:30.061Z,85.27
2023-01-12T00:49:59.264Z,84.77
2023-01-12T00:52:31.427Z,85.18
2023-01-12T00:55:00.403Z,84.33
2023-01-12T00:57:28.792Z,84.20
2023-01-12T00:59:59.363Z,84.44
2023-01-12T01:02:27.683Z,83.54
2023-01-12T01:04:55.829Z,83.65
2023-01-12T01:07:25.157Z,83.35
2023-01-12T01:09:52.950Z,83.45
2023-01-12T01:12:20.915Z,83.17
2023-01-12T01:14:49.155Z,82.85
2023-01-12T01:17:17.029Z,83.51
2023-01-12T01:19:44.937Z,83.39
2023-01-12T01:22:13.490Z,82.97
2023-01-12T01:24:43.272Z,82.78
2023-01-12T01:27:11.253Z,82.58
2023-01-12T01:29:38.995Z,82.37
2023-01-12T01:32:07.538Z,82.47
2023-01-12T01:34:35.742Z,82.73
2023-01-12T01:37:04.107Z,82.20
2023-01-12T01:39:31.874Z,81.98
2023-01-12T01:42:01.504Z,81.84
2023-01-12T01:44:51.692Z,81.89
2023-01-12T01:47:31.243Z,81.91
2023-01-12T01:50:03.033Z,81.39
2023-01-12T01:52:34.622Z,81.02
2023-01-12T01:55:08.086Z,80.75
2023-01-12T01:57:43.845Z,80.54
2023-01-12T02:00:13.876Z,80.35
2023-01-12T02:02:44.388Z,80.30
2023-01-12T02:05:13.585Z,79.66
2023-01-12T02:07:42.101Z,79.54
2023-01-12T02:10:11.049Z,79.33
2023-01-12T02:12:58.018Z,78.87
2023-01-12T02:15:46.882Z,78.59
2023-01-12T02:18:22.695Z,78.48
2023-01-12T02:21:07.418Z,78.49
2023-01-12T02:24:16.469Z,77.98
2023-01-12T02:27:12.946Z,78.36
2023-01-12T02:30:16.205Z,77.91
2023-01-12T02:32:55.398Z,77.92
2023-01-12T02:35:28.261Z,77.76
2023-01-12T02:38:04.760Z,77.50
2023-01-12T02:40:37.787Z,77.13
2023-01-12T02:43:13.500Z,77.53
2023-01-12T02:45:48.136Z,77.63
2023-01-12T02:48:23.238Z,77.48
2023-01-12T02:50:58.575Z,77.51
2023-01-12T02:53:36.057Z,77.22
2023-01-12T02:56:08.663Z,77.57
2023-01-12T02:58:39.691Z,77.33
2023-01-12T03:01:10.584Z,77.55
2023-01-12T03:03:40.838Z,77.26
2023-01-12T03:06:09.963Z,77.07
2023-01-12T03:08:40.277Z,76.83
2023-01-12T03:11:13.975Z,77.17
2023-01-12T03:13:46.481Z,77.61
2023-01-12T03:16:17.668Z,77.27
2023-01-12T03:18:51.787Z,77.01
2023-01-12T03:21:27.632Z,77.17
2023-01-12T03:24:03.601Z,77.44
2023-01-12T03:26:34.635Z,77.21
2023-01-12T03:29:06.704Z,77.37
2023-01-12T03:31:35.158Z,76.90
2023-01-12T03:34:06.679Z,77.18
2023-01-12T03:36:46.646Z,76.79
2023-01-12T03:39:21.509Z,76.62
2023-01-12T03:41:57.347Z,76.73
2023-01-12T03:44:32.388Z,76.63
2023-01-12T03:47:04.748Z,76.63
2023-01-12T03:49:39.492Z,77.19
2023-01-12T03:52:11.041Z,77.02
2023-01-12T03:54:41.638Z,76.83
2023-01-12T03:57:12.105Z,76.66
2023-01-12T03:59:40.936Z,76.91
2023-01-12T04:02:08.712Z,76.29
2023-01-12T04:04:37.842Z,76.30
2023-01-12T04:07:05.739Z,76.57
2023-01-12T04:09:33.639Z,76.31
2023-01-12T04:12:21.378Z,76.43
2023-01-12T04:14:50.089Z,76.34
2023-01-12T04:17:24.170Z,76.24
2023-01-12T04:19:53.620Z,76.62
2023-01-12T04:22:39.008Z,76.37
2023-01-12T04:25:09.510Z,76.32
2023-01-12T04:27:37.742Z,76.01
2023-01-12T04:30:06.296Z,76.22
2023-01-12T04:32:34.103Z,76.23
2023-01-12T04:35:03.235Z,76.38
2023-01-12T04:37:32.852Z,76.30
2023-01-12T04:40:00.609Z,76.25
2023-01-12T04:42:46.212Z,75.81
2023-01-12T04:45:13.978Z,75.92
2023-01-12T04:47:41.745Z,76.28
2023-01-12T04:50:12.020Z,76.09
2023-01-12T04:52:39.895Z,76.41
2023-01-12T04:55:08.450Z,76.52
2023-01-12T04:57:36.537Z,76.28
2023-01-12T05:00:05.521Z,76.03
2023-01-12T05:02:33.393Z,76.19
2023-01-12T05:05:01.164Z,76.08
2023-01-12T05:07:30.309Z,76.31
2023-01-12T05:10:30.075Z,76.19
2023-01-12T05:12:58.008Z,75.92
2023-01-12T05:15:25.892Z,75.57
2023-01-12T05:17:54.670Z,76.21
2023-01-12T05:20:22.648Z,76.17
2023-01-12T05:22:52.614Z,75.96
2023-01-12T05:25:20.455Z,75.74
2023-01-12T05:27:48.283Z,76.29
2023-01-12T05:30:16.939Z,76.24
2023-01-12T05:32:45.863Z,75.81
2023-01-12T05:35:13.597Z,75.85
2023-01-12T05:37:41.508Z,75.52
2023-01-12T05:40:12.503Z,75.76
2023-01-12T05:43:00.727Z,75.06
2023-01-12T05:45:28.565Z,74.43
2023-01-12T05:48:02.145Z,74.23
2023-01-12T05:50:30.177Z,74.53
2023-01-12T05:53:10.211Z,74.41
2023-01-12T05:55:40.039Z,74.47
2023-01-12T05:58:08.233Z,74.47
2023-01-12T06:00:36.110Z,74.23
2023-01-12T06:03:04.371Z,74.19
2023-01-12T06:05:32.218Z,74.76
2023-01-12T06:08:00.708Z,74.65
2023-01-12T06:10:28.563Z,74.54
2023-01-12T06:13:15.238Z,74.89
2023-01-12T06:15:43.086Z,75.06
2023-01-12T06:18:11.318Z,75.14
2023-01-12T06:20:41.385Z,75.21
2023-01-12T06:23:09.184Z,75.56
2023-01-12T06:25:37.621Z,75.22
2023-01-12T06:28:07.900Z,75.51
2023-01-12T06:30:35.790Z,75.22
2023-01-12T06:33:04.139Z,75.39
2023-01-12T06:35:33.941Z,75.24
2023-01-12T06:38:02.432Z,74.92
2023-01-12T06:40:30.274Z,74.92
2023-01-12T06:42:58.077Z,74.71
2023-01-12T06:45:27.182Z,74.79
2023-01-12T06:47:57.251Z,75.06
2023-01-12T06:50:27.442Z,74.91
2023-01-12T06:52:56.077Z,74.87
2023-01-12T06:55:23.865Z,74.98
2023-01-12T06:57:51.639Z,74.94
2023-01-12T07:00:20.037Z,75.05
2023-01-12T07:02:51.842Z,74.78
2023-01-12T07:05:19.697Z,74.74
2023-01-12T07:07:49.537Z,75.10
2023-01-12T07:10:20.639Z,74.56
2023-01-12T07:12:50.149Z,74.64
2023-01-12T07:15:18.079Z,74.33
2023-01-12T07:17:45.969Z,74.02
2023-01-12T07:20:15.404Z,73.99
2023-01-12T07:22:43.131Z,73.79
2023-01-12T07:25:11.230Z,73.91
2023-01-12T07:27:39.014Z,73.71
2023-01-12T07:30:07.977Z,73.12
2023-01-12T07:32:35.862Z,73.57
2023-01-12T07:35:06.587Z,73.28
2023-01-12T07:37:35.830Z,72.99
2023-01-12T07:40:03.662Z,73.23
2023-01-12T07:42:33.606Z,73.05
2023-01-12T07:45:03.124Z,72.86
2023-01-12T07:47:30.934Z,73.11
2023-01-12T07:49:58.748Z,73.00
2023-01-12T07:52:26.521Z,72.88
2023-01-12T07:54:58.215Z,72.64
2023-01-12T07:57:26.103Z,72.77
2023-01-12T07:59:53.931Z,72.73
2023-01-12T08:02:21.794Z,72.65
2023-01-12T08:04:49.682Z,72.35
2023-01-12T08:07:17.575Z,71.93
2023-01-12T08:09:45.406Z,71.80
2023-01-12T08:12:14.515Z,71.56
2023-01-12T08:14:42.974Z,71.97
2023-01-12T08:17:15.301Z,71.47
2023-01-12T08:19:46.920Z,71.38
2023-01-12T08:22:19.145Z,71.38
2023-01-12T08:24:51.704Z,71.15
2023-01-12T08:27:25.137Z,71.35
2023-01-12T08:29:55.571Z,70.63
2023-01-12T08:32:24.295Z,71.48
2023-01-12T08:34:54.490Z,70.99
2023-01-12T08:37:26.141Z,70.90
2023-01-12T08:39:54.121Z,71.10
2023-01-12T08:42:26.502Z,70.79
2023-01-12T08:44:55.631Z,71.20
2023-01-12T08:47:27.101Z,70.94
2023-01-12T08:49:55.321Z,71.11
2023-01-12T08:52:26.071Z,71.46
2023-01-12T08:54:53.901Z,71.38
2023-01-12T08:57:23.094Z,71.43
2023-01-12T08:59:51.005Z,71.43
2023-01-12T09:02:19.267Z,71.07
2023-01-12T09:04:47.129Z,71.83
2023-01-12T09:07:17.127Z,71.56
2023-01-12T09:09:44.951Z,71.53
2023-01-12T09:12:12.929Z,71.50
2023-01-12T09:14:44.347Z,71.86
2023-01-12T09:17:12.200Z,71.57
2023-01-12T09:19:40.061Z,71.86
2023-01-12T09:22:07.851Z,71.73
2023-01-12T09:24:35.683Z,71.30
2023-01-12T09:27:03.487Z,71.75
2023-01-12T09:29:31.271Z,72.11
2023-01-12T09:32:00.617Z,72.05
2023-01-12T09:34:28.616Z,71.83
2023-01-12T09:36:57.182Z,71.87
2023-01-12T09:39:28.577Z,71.90
2023-01-12T09:42:15.176Z,71.96
2023-01-12T09:45:11.737Z,72.14
2023-01-12T09:47:50.712Z,72.10
2023-01-12T09:50:23.352Z,72.00
2023-01-12T09:52:56.675Z,72.05
2023-01-12T09:55:27.120Z,71.92
2023-01-12T09:58:13.930Z,72.08
2023-01-12T10:00:41.846Z,71.74
2023-01-12T10:03:25.663Z,71.34
2023-01-12T10:05:58.267Z,71.54
2023-01-12T10:08:33.447Z,71.55
2023-01-12T10:11:15.693Z,71.10
2023-01-12T10:14:02.156Z,70.92
2023-01-12T10:16:38.651Z,70.74
2023-01-12T10:19:14.293Z,70.68
2023-01-12T10:21:42.779Z,70.52
2023-01-12T10:24:13.957Z,70.12
2023-01-12T10:26:43.641Z,69.77
2023-01-12T10:29:13.863Z,69.79
2023-01-12T10:31:41.809Z,69.84
2023-01-12T10:34:13.098Z,69.50
2023-01-12T10:36:44.490Z,69.82
2023-01-12T10:39:31.445Z,68.87
2023-01-12T10:42:38.427Z,68.88
2023-01-12T10:45:18.333Z,69.13
2023-01-12T10:47:46.756Z,69.54
2023-01-12T10:50:28.318Z,69.27
2023-01-12T10:53:02.308Z,69.84
2023-01-12T10:55:33.504Z,69.12
2023-01-12T10:58:01.858Z,69.14
2023-01-12T11:00:30.776Z,69.46
2023-01-12T11:02:58.778Z,68.67
2023-01-12T11:05:35.495Z,68.81
2023-01-12T11:08:04.100Z,68.68
2023-01-12T11:10:35.498Z,69.08
2023-01-12T11:13:05.893Z,68.93
2023-01-12T11:15:39.226Z,68.54
2023-01-12T11:18:33.240Z,68.23
2023-01-12T11:21:05.634Z,68.46
2023-01-12T11:23:40.157Z,68.14
2023-01-12T11:26:16.987Z,68.84
2023-01-12T11:28:48.725Z,68.91
2023-01-12T11:31:22.027Z,68.46
2023-01-12T11:33:57.323Z,68.16
2023-01-12T11:36:31.438Z,67.96
2023-01-12T11:39:04.223Z,67.88
2023-01-12T11:41:39.977Z,66.99
2023-01-12T11:44:16.332Z,66.79
2023-01-12T11:46:47.678Z,67.01
2023-01-12T11:49:19.312Z,66.95
2023-01-12T11:51:51.867Z,66.61
2023-01-12T11:54:20.527Z,65.87
2023-01-12T11:57:04.263Z,65.71
2023-01-12T11:59:41.800Z,65.17
2023-01-12T12:02:29.172Z,64.43
2023-01-12T12:05:07.507Z,65.11
2023-01-12T12:07:49.522Z,65.57
2023-01-12T12:10:23.887Z,66.08
2023-01-12T12:13:17.427Z,65.78
2023-01-12T12:15:56.652Z,65.86
2023-01-12T12:18:39.365Z,66.10
2023-01-12T12:21:16.821Z,65.89
2023-01-12T12:23:58.631Z,65.60
2023-01-12T12:26:30.529Z,65.22
2023-01-12T12:29:27.464Z,65.66
2023-01-12T12:32:09.893Z,65.34
2023-01-12T12:35:01.330Z,66.41
2023-01-12T12:37:42.982Z,66.35
2023-01-12T12:40:22.942Z,66.59
2023-01-12T12:43:19.722Z,66.64
2023-01-12T12:45:54.235Z,66.88
2023-01-12T12:48:28.617Z,66.58
2023-01-12T12:51:04.088Z,67.05
2023-01-12T12:53:35.802Z,67.26
2023-01-12T12:56:07.859Z,67.32
2023-01-12T12:58:46.637Z,67.19
2023-01-12T13:01:43.517Z,67.97
2023-01-12T13:04:14.100Z,67.83
2023-01-12T13:06:45.593Z,67.63
2023-01-12T13:09:40.392Z,67.24
2023-01-12T13:12:33.406Z,67.97
2023-01-12T13:15:26.653Z,67.73
2023-01-12T13:17:56.054Z,67.42
2023-01-12T13:21:02.377Z,67.43
2023-01-12T13:23:48.896Z,67.73
2023-01-12T13:26:46.815Z,68.11
2023-01-12T13:29:51.384Z,67.35
2023-01-12T13:32:43.179Z,68.30
2023-01-12T13:35:58.866Z,68.29
2023-01-12T13:38:48.426Z,68.50
2023-01-12T13:41:41.786Z,68.65
2023-01-12T13:44:14.659Z,68.56
2023-01-12T13:46:47.449Z,68.72
2023-01-12T13:49:31.156Z,68.87
2023-01-12T13:52:01.927Z,68.68
2023-01-12T13:54:30.776Z,68.98
2023-01-12T13:57:00.890Z,68.92
2023-01-12T13:59:30.084Z,68.63
2023-01-12T14:01:59.772Z,68.61
2023-01-12T14:04:45.886Z,68.40
2023-01-12T14:07:28.828Z,69.20
2023-01-12T14:10:08.846Z,69.44
2023-01-12T14:12:51.075Z,69.63
2023-01-12T14:15:46.616Z,69.91
2023-01-12T14:18:18.802Z,70.18
2023-01-12T14:20:55.403Z,69.94
2023-01-12T14:23:28.795Z,70.53
2023-01-12T14:26:22.477Z,69.90
2023-01-12T14:28:51.868Z,69.85
2023-01-12T14:31:27.019Z,70.23
2023-01-12T14:33:58.447Z,70.18
2023-01-12T14:36:29.273Z,70.56
2023-01-12T14:38:59.152Z,70.26
2023-01-12T14:41:47.138Z,70.65
2023-01-12T14:44:38.004Z,70.10
2023-01-12T14:47:06.186Z,70.68
2023-01-12T14:49:36.918Z,70.10
2023-01-12T14:52:24.000Z,70.49
2023-01-12T14:54:54.099Z,70.45
2023-01-12T14:57:25.064Z,70.35
2023-01-12T14:59:53.587Z,70.32
2023-01-12T15:02:32.943Z,70.58
2023-01-12T15:05:04.716Z,71.20
2023-01-12T15:07:36.152Z,70.90
2023-01-12T15:10:25.895Z,70.77
2023-01-12T15:12:55.152Z,70.77
2023-01-12T15:15:24.949Z,70.62
2023-01-12T15:18:12.216Z,70.63
2023-01-12T15:21:03.276Z,71.18
2023-01-12T15:23:51.013Z,70.88
2023-01-12T15:26:19.573Z,70.72
2023-01-12T15:28:48.583Z,70.30
2023-01-12T15:31:21.446Z,70.97
2023-01-12T15:33:49.445Z,71.00
2023-01-12T15:36:18.717Z,70.90
2023-01-12T15:38:48.688Z,71.11
2023-01-12T15:41:19.170Z,71.04
2023-01-12T15:43:47.036Z,70.95
2023-01-12T15:46:20.038Z,70.34
2023-01-12T15:48:47.869Z,70.49
2023-01-12T15:51:16.920Z,71.33
2023-01-12T15:53:46.158Z,72.17
2023-01-12T15:56:16.236Z,71.50
2023-01-12T15:58:44.051Z,71.51
2023-01-12T16:01:16.920Z,71.58
2023-01-12T16:04:09.510Z,71.96
2023-01-12T16:06:34.010Z,72.29
2023-01-12T16:09:03.170Z,72.51
2023-01-12T16:11:30.983Z,72.15
2023-01-12T16:13:58.760Z,72.16
2023-01-12T16:16:29.343Z,72.32
2023-01-12T16:18:59.782Z,71.87
2023-01-12T16:21:29.391Z,72.03
2023-01-12T16:23:57.976Z,72.51
2023-01-12T16:26:28.347Z,72.66
2023-01-12T16:28:58.912Z,72.73
2023-01-12T16:31:27.878Z,72.58
2023-01-12T16:33:55.817Z,72.75
2023-01-12T16:36:23.686Z,72.89
2023-01-12T16:38:51.978Z,72.47
2023-01-12T16:41:22.213Z,72.26
2023-01-12T16:43:52.166Z,72.47
2023-01-12T16:46:20.032Z,72.76
2023-01-12T16:48:48.252Z,72.77
2023-01-12T16:51:19.913Z,72.51
2023-01-12T16:53:48.334Z,72.59
2023-01-12T16:56:17.245Z,72.55
2023-01-12T16:58:48.306Z,72.39
2023-01-12T17:01:21.015Z,72.46
2023-01-12T17:03:50.675Z,72.78
2023-01-12T17:06:21.380Z,72.51
2023-01-12T17:08:49.573Z,71.97
2023-01-12T17:11:20.247Z,72.29
2023-01-12T17:13:52.369Z,72.58
2023-01-12T17:16:23.351Z,72.72
2023-01-12T17:18:51.669Z,72.89
2023-01-12T17:21:20.951Z,72.99
2023-01-12T17:23:48.980Z,73.15
2023-01-12T17:26:19.364Z,72.71
2023-01-12T17:28:48.129Z,72.58
2023-01-12T17:31:19.268Z,72.48
2023-01-12T17:33:50.137Z,72.17
2023-01-12T17:36:19.058Z,72.41
2023-01-12T17:38:47.004Z,72.51
2023-01-12T17:41:30.956Z,71.96
2023-01-12T17:43:59.166Z,71.82
2023-01-12T17:46:27.123Z,71.85
2023-01-12T17:48:58.517Z,72.27
2023-01-12T17:51:26.528Z,71.64
2023-01-12T17:53:54.693Z,71.67
2023-01-12T17:56:22.590Z,71.60
2023-01-12T17:58:50.986Z,71.13
2023-01-12T18:01:19.311Z,71.10
2023-01-12T18:03:47.269Z,71.15
2023-01-12T18:06:25.827Z,71.48
2023-01-12T18:08:56.204Z,71.11
2023-01-12T18:11:24.506Z,71.09
2023-01-12T18:13:52.749Z,70.60
2023-01-12T18:16:21.136Z,70.50
2023-01-12T18:18:52.095Z,70.64
2023-01-12T18:21:23.113Z,70.40
2023-01-12T18:23:53.286Z,70.52
2023-01-12T18:26:25.160Z,70.64
2023-01-12T18:28:53.330Z,70.36
2023-01-12T18:31:23.240Z,70.36
2023-01-12T18:33:52.701Z,70.28
2023-01-12T18:36:23.747Z,70.32
2023-01-12T18:38:54.051Z,70.43
2023-01-12T18:41:40.747Z,70.25
2023-01-12T18:44:09.267Z,70.27
2023-01-12T18:47:11.502Z,69.74
2023-01-12T18:49:40.154Z,69.86
2023-01-12T18:52:30.067Z,69.79
2023-01-12T18:54:58.841Z,69.32
2023-01-12T18:57:28.802Z,69.33
2023-01-12T19:00:00.215Z,69.54
2023-01-12T19:02:29.801Z,69.63
2023-01-12T19:05:16.589Z,69.38
2023-01-12T19:08:03.785Z,69.23
2023-01-12T19:10:33.610Z,69.19
2023-01-12T19:13:18.869Z,69.06
2023-01-12T19:16:04.126Z,69.28
2023-01-12T19:18:31.996Z,69.60
2023-01-12T19:21:23.548Z,68.92
2023-01-12T19:24:09.972Z,68.87
2023-01-12T19:26:55.354Z,68.47
2023-01-12T19:29:23.248Z,68.51
2023-01-12T19:31:51.132Z,68.24
2023-01-12T19:34:19.068Z,68.81
2023-01-12T19:36:46.892Z,68.48
2023-01-12T19:39:23.814Z,68.72
2023-01-12T19:42:09.310Z,68.53
2023-01-12T19:44:37.194Z,68.20
2023-01-12T19:47:05.078Z,68.25
2023-01-12T19:49:33.128Z,68.20
2023-01-12T19:52:01.005Z,68.06
2023-01-12T19:54:31.515Z,68.01
2023-01-12T19:56:59.629Z,67.83
2023-01-12T19:59:28.326Z,67.83
2023-01-12T20:01:56.231Z,67.55
2023-01-12T20:04:24.160Z,67.20
2023-01-12T20:06:53.258Z,67.09
2023-01-12T20:09:21.233Z,67.10
2023-01-12T20:11:54.544Z,67.31
2023-01-12T20:14:22.984Z,67.12
2023-01-12T20:16:50.985Z,67.27
2023-01-12T20:19:19.453Z,67.21
2023-01-12T20:21:49.368Z,67.40
2023-01-12T20:24:17.828Z,66.92
2023-01-12T20:26:46.080Z,66.93
2023-01-12T20:29:15.316Z,67.19
2023-01-12T20:31:44.245Z,67.41
2023-01-12T20:34:12.552Z,67.32
2023-01-12T20:36:40.991Z,67.44
2023-01-12T20:39:11.040Z,67.33
2023-01-12T20:41:39.675Z,67.33
2023-01-12T20:44:07.970Z,67.84
2023-01-12T20:46:37.202Z,67.39
2023-01-12T20:49:05.020Z,67.25
2023-01-12T20:51:32.967Z,67.41
2023-01-12T20:54:02.915Z,67.26
2023-01-12T20:56:31.449Z,66.76
2023-01-12T20:59:00.270Z,67.58
2023-01-12T21:01:28.916Z,66.87
2023-01-12T21:04:00.359Z,66.77
2023-01-12T21:06:28.198Z,66.96
2023-01-12T21:08:55.971Z,67.28
2023-01-12T21:11:23.735Z,67.36
2023-01-12T21:13:51.562Z,67.49
2023-01-12T21:16:22.648Z,67.46
2023-01-12T21:18:50.572Z,67.80
2023-01-12T21:21:19.722Z,67.58
2023-01-12T21:23:47.683Z,67.37
2023-01-12T21:26:16.087Z,67.59
2023-01-12T21:28:43.964Z,67.62
2023-01-12T21:31:13.542Z,67.33
2023-01-12T21:33:41.369Z,67.39
2023-01-12T21:36:13.942Z,67.29
2023-01-12T21:38:46.551Z,66.98
2023-01-12T21:41:15.942Z,67.31
2023-01-12T21:43:42.801Z,67.75
2023-01-12T21:46:11.694Z,67.68
2023-01-12T21:48:41.806Z,67.35
2023-01-12T21:51:12.732Z,67.55
2023-01-12T21:53:41.807Z,67.93
2023-01-12T21:56:13.005Z,67.53
2023-01-12T21:58:40.924Z,67.40
2023-01-12T22:01:10.793Z,68.16
2023-01-12T22:03:41.743Z,68.16
2023-01-12T22:06:11.867Z,68.11
2023-01-12T22:08:41.265Z,68.05
2023-01-12T22:11:12.791Z,67.95
2023-01-12T22:13:40.974Z,68.10
2023-01-12T22:16:10.568Z,67.90
2023-01-12T22:18:39.364Z,67.59
2023-01-12T22:21:09.071Z,67.82
2023-01-12T22:23:38.142Z,67.97
2023-01-12T22:26:08.799Z,67.76
2023-01-12T22:28:40.220Z,67.65
2023-01-12T22:31:09.853Z,67.84
2023-01-12T22:33:38.056Z,67.51
2023-01-12T22:36:07.859Z,67.64
2023-01-12T22:38:35.811Z,67.62
2023-01-12T22:41:07.629Z,67.91
2023-01-12T22:43:40.700Z,67.46
2023-01-12T22:46:17.896Z,67.43
2023-01-12T22:48:49.303Z,67.57
2023-01-12T22:51:17.240Z,67.64
2023-01-12T22:53:45.071Z,67.75
2023-01-12T22:56:12.936Z,67.65
2023-01-12T22:58:41.039Z,67.28
2023-01-12T23:01:10.507Z,67.35
2023-01-12T23:03:39.752Z,67.31
2023-01-12T23:06:11.419Z,67.47
2023-01-12T23:08:39.279Z,67.29
2023-01-12T23:11:09.372Z,67.35
2023-01-12T23:13:37.227Z,67.65
2023-01-12T23:16:07.559Z,67.25
2023-01-12T23:18:37.375Z,67.28
2023-01-12T23:21:10.917Z,67.83
2023-01-12T23:23:39.494Z,67.66
2023-01-12T23:26:09.536Z,67.87
2023-01-12T23:28:41.068Z,68.00
2023-01-12T23:31:14.710Z,67.88
2023-01-12T23:33:43.113Z,67.74
2023-01-12T23:36:15.157Z,68.08
2023-01-12T23:38:43.706Z,68.57
2023-01-12T23:41:13.109Z,69.00
2023-01-12T23:43:41.179Z,68.84
2023-01-12T23:46:09.119Z,68.81
2023-01-12T23:48:39.029Z,68.83
2023-01-12T23:51:07.216Z,69.47
2023-01-12T23:53:36.666Z,69.11
2023-01-12T23:56:06.813Z,69.11
2023-01-12T23:58:35.043Z,69.34
